Time;durP1;ratioP1;P1;durP2;ratioP2;P2;SDS_P1;SDS_P2;PMS_P1;PMS_P2;Temp;Humidity;BMP_temperature;BMP_pressure;BME280_temperature;BME280_humidity;BME280_pressure;Samples;Min_cycle;Max_cycle;Signal;HPM_P1;HPM_P2
2021/12/06 00:00:15;;;;;;;5.32;4.07;;;8.30;79.90;;;;;;5033450;28;20465;-81
2021/12/06 00:02:40;;;;;;;5.90;4.72;;;8.30;80.20;;;;;;5035180;28;20041;-80
2021/12/06 00:05:07;;;;;;;5.88;4.70;;;8.30;80.70;;;;;;5035346;28;20030;-81
2021/12/06 00:07:33;;;;;;;6.05;4.88;;;8.30;79.90;;;;;;5017830;28;20045;-81
2021/12/06 00:09:59;;;;;;;5.95;4.60;;;8.30;80.10;;;;;;5013250;28;20034;-80
2021/12/06 00:12:24;;;;;;;7.22;5.80;;;8.40;80.20;;;;;;5013951;28;20037;-76
2021/12/06 00:14:50;;;;;;;6.88;5.72;;;8.30;79.70;;;;;;5013764;28;20042;-75
2021/12/06 00:17:17;;;;;;;5.68;4.22;;;8.30;79.90;;;;;;5013901;28;20037;-76
2021/12/06 00:19:44;;;;;;;5.43;4.43;;;8.30;80.00;;;;;;5013701;28;20069;-76
2021/12/06 00:22:16;;;;;;;5.78;4.60;;;8.30;80.10;;;;;;5012722;28;20457;-75
2021/12/06 00:24:42;;;;;;;6.60;4.53;;;8.30;80.20;;;;;;5015151;28;20120;-75
2021/12/06 00:27:08;;;;;;;5.50;4.57;;;8.30;79.90;;;;;;5010153;28;20129;-75
2021/12/06 00:29:34;;;;;;;6.03;4.65;;;8.30;80.20;;;;;;5010447;28;20561;-75
2021/12/06 00:32:00;;;;;;;5.93;4.60;;;8.30;80.00;;;;;;5010442;28;20057;-75
2021/12/06 00:34:31;;;;;;;6.90;5.00;;;8.30;80.10;;;;;;5015039;28;20030;-75
2021/12/06 00:37:17;;;;;;;7.60;5.68;;;8.30;80.30;;;;;;5012808;28;20037;-75
2021/12/06 00:39:55;;;;;;;6.03;4.63;;;8.30;80.00;;;;;;5012046;28;21061;-75
2021/12/06 00:42:24;;;;;;;5.38;4.13;;;8.40;80.10;;;;;;5011771;28;20038;-74
2021/12/06 00:44:52;;;;;;;5.78;4.45;;;8.40;80.00;;;;;;5012889;28;20509;-75
2021/12/06 00:47:18;;;;;;;5.68;4.95;;;8.40;79.90;;;;;;5012873;28;20045;-75
2021/12/06 00:49:47;;;;;;;6.15;4.70;;;8.40;79.90;;;;;;5014154;28;20034;-75
2021/12/06 00:52:14;;;;;;;6.75;5.13;;;8.40;79.90;;;;;;4995599;28;20034;-75
2021/12/06 00:54:40;;;;;;;6.25;4.95;;;8.40;79.90;;;;;;5018216;28;20066;-75
2021/12/06 00:57:08;;;;;;;5.18;4.30;;;8.40;79.80;;;;;;5011410;28;20033;-74
2021/12/06 00:59:35;;;;;;;4.60;4.05;;;8.40;79.70;;;;;;5013858;28;20038;-75
2021/12/06 01:02:02;;;;;;;5.15;4.20;;;8.40;79.70;;;;;;4993046;28;20378;-74
2021/12/06 01:04:30;;;;;;;5.68;4.65;;;8.40;79.60;;;;;;5012653;28;20037;-75
2021/12/06 01:06:57;;;;;;;5.00;3.92;;;8.40;79.50;;;;;;4991145;28;20512;-74
2021/12/06 01:09:22;;;;;;;5.47;4.70;;;8.40;80.10;;;;;;5030460;28;20436;-75
2021/12/06 01:11:48;;;;;;;6.15;4.93;;;8.30;79.40;;;;;;5031287;28;20030;-75
2021/12/06 01:14:14;;;;;;;4.80;3.78;;;8.30;78.90;;;;;;5017012;28;20038;-76
2021/12/06 01:16:39;;;;;;;4.88;3.72;;;8.10;78.70;;;;;;5027710;28;20236;-75
2021/12/06 01:19:05;;;;;;;3.80;3.17;;;8.00;79.40;;;;;;5021651;28;20478;-75
2021/12/06 01:22:14;;;;;;;4.25;3.42;;;7.90;79.60;;;;;;5019877;28;20373;-75
2021/12/06 01:24:29;;;;;;;4.50;3.55;;;8.00;79.70;;;;;;5014422;28;20034;-76
2021/12/06 01:27:42;;;;;;;4.45;3.50;;;8.10;79.90;;;;;;5021659;28;20038;-75
2021/12/06 01:40:36;;;;;;;4.53;3.20;;;8.00;78.70;;;;;;5011906;28;20115;-80
2021/12/06 01:43:06;;;;;;;3.28;2.85;;;8.10;78.90;;;;;;5023466;28;20454;-79
2021/12/06 01:45:32;;;;;;;4.40;3.10;;;8.10;78.80;;;;;;5013462;28;20046;-80
2021/12/06 01:47:58;;;;;;;4.38;3.03;;;8.20;78.70;;;;;;5004194;28;20121;-80
2021/12/06 01:50:28;;;;;;;4.25;3.33;;;8.20;78.60;;;;;;5012622;28;20076;-80
2021/12/06 01:52:57;;;;;;;5.30;3.33;;;8.30;78.00;;;;;;5024038;28;20474;-81
2021/12/06 01:55:29;;;;;;;2.90;2.60;;;8.10;76.70;;;;;;5006178;28;20485;-81
2021/12/06 01:57:56;;;;;;;3.58;2.63;;;8.00;77.60;;;;;;5020993;28;20052;-80
2021/12/06 02:00:38;;;;;;;3.33;2.83;;;8.00;77.50;;;;;;5019335;28;20113;-81
2021/12/06 02:03:04;;;;;;;3.75;2.80;;;8.10;78.10;;;;;;5018809;28;20421;-80
2021/12/06 02:05:30;;;;;;;3.72;2.75;;;8.10;78.00;;;;;;5022174;28;20037;-80
2021/12/06 02:07:56;;;;;;;4.30;2.67;;;8.20;78.00;;;;;;5003314;28;20405;-80
2021/12/06 02:10:23;;;;;;;3.58;2.58;;;8.10;76.30;;;;;;5001899;28;20087;-80
2021/12/06 02:12:52;;;;;;;3.45;2.50;;;8.00;77.10;;;;;;5032145;28;20040;-81
2021/12/06 02:15:33;;;;;;;2.92;2.58;;;8.10;77.60;;;;;;5005895;28;20033;-81
2021/12/06 02:18:10;;;;;;;3.97;2.65;;;8.10;77.70;;;;;;5001970;28;20044;-81
2021/12/06 02:20:46;;;;;;;3.70;2.80;;;8.20;77.70;;;;;;5022990;28;20030;-81
2021/12/06 02:23:12;;;;;;;2.90;2.60;;;8.30;77.60;;;;;;5028232;28;20090;-80
2021/12/06 02:25:37;;;;;;;3.40;2.70;;;8.30;77.40;;;;;;5010214;28;20462;-80
2021/12/06 02:28:04;;;;;;;4.03;2.78;;;8.30;77.10;;;;;;5022266;28;20413;-81
2021/12/06 02:30:29;;;;;;;3.65;2.38;;;8.20;75.70;;;;;;5031616;28;20066;-80
2021/12/06 02:32:56;;;;;;;3.00;2.38;;;8.20;76.60;;;;;;5027511;28;20093;-80
2021/12/06 02:35:23;;;;;;;3.10;2.50;;;8.30;76.70;;;;;;5002577;28;20030;-80
2021/12/06 02:37:50;;;;;;;3.28;2.47;;;8.30;76.80;;;;;;5017388;28;20038;-80
2021/12/06 02:40:22;;;;;;;2.80;2.47;;;8.30;76.80;;;;;;5000330;28;20062;-80
2021/12/06 02:42:48;;;;;;;2.70;2.25;;;8.40;77.00;;;;;;5022897;28;20041;-80
2021/12/06 02:45:17;;;;;;;3.20;2.40;;;8.40;76.80;;;;;;5025543;28;20045;-79
2021/12/06 02:47:43;;;;;;;2.78;2.40;;;8.40;76.50;;;;;;5028887;28;20049;-81
2021/12/06 02:50:11;;;;;;;2.42;2.22;;;8.40;76.00;;;;;;5031191;28;20371;-81
2021/12/06 02:52:38;;;;;;;3.15;2.45;;;8.40;76.20;;;;;;5016331;28;20045;-80
2021/12/06 02:55:24;;;;;;;2.63;1.98;;;8.40;76.40;;;;;;5023701;28;20060;-81
2021/12/06 02:57:54;;;;;;;2.38;1.80;;;8.40;76.40;;;;;;5024184;28;20116;-81
2021/12/06 03:00:21;;;;;;;2.88;2.30;;;8.30;76.30;;;;;;5017197;28;20038;-81
2021/12/06 03:02:47;;;;;;;5.20;2.50;;;8.30;76.10;;;;;;5027003;28;20046;-81
2021/12/06 03:05:12;;;;;;;4.28;2.47;;;8.30;76.10;;;;;;5022080;28;20041;-80
2021/12/06 03:07:39;;;;;;;2.47;2.13;;;8.30;76.20;;;;;;5029166;28;20054;-81
2021/12/06 03:10:09;;;;;;;2.55;2.20;;;8.30;76.20;;;;;;5018387;28;20058;-81
2021/12/06 03:12:36;;;;;;;3.20;2.35;;;8.30;76.10;;;;;;5028854;28;20050;-81
2021/12/06 03:15:05;;;;;;;3.22;2.15;;;8.30;76.00;;;;;;5024538;28;20462;-81
2021/12/06 03:17:32;;;;;;;2.63;2.40;;;8.30;76.00;;;;;;5032481;28;20053;-80
2021/12/06 03:19:59;;;;;;;3.05;2.50;;;8.30;76.00;;;;;;5025704;28;20045;-80
2021/12/06 03:22:26;;;;;;;2.40;2.00;;;8.30;76.00;;;;;;5016797;28;20026;-81
2021/12/06 03:24:51;;;;;;;2.67;1.92;;;8.30;76.20;;;;;;5021223;28;20096;-80
2021/12/06 03:27:18;;;;;;;3.55;2.47;;;8.30;76.30;;;;;;5024082;28;20481;-81
2021/12/06 03:29:43;;;;;;;2.35;1.90;;;8.10;75.60;;;;;;5014846;28;20030;-81
2021/12/06 03:32:10;;;;;;;3.05;2.00;;;8.10;75.90;;;;;;5028829;28;20044;-81
2021/12/06 03:34:35;;;;;;;2.65;2.15;;;8.00;76.20;;;;;;5016704;28;20372;-81
2021/12/06 03:37:03;;;;;;;2.33;1.90;;;8.00;76.40;;;;;;5023798;28;20114;-81
2021/12/06 03:39:34;;;;;;;2.70;2.15;;;8.00;76.40;;;;;;5032695;28;20041;-81
2021/12/06 03:42:03;;;;;;;2.22;1.95;;;7.90;74.20;;;;;;4999812;28;20434;-81
2021/12/06 03:44:29;;;;;;;2.75;2.05;;;7.80;75.20;;;;;;5008663;28;20029;-75
2021/12/06 03:46:59;;;;;;;4.13;3.10;;;7.80;75.80;;;;;;5029237;28;20030;-75
2021/12/06 03:49:25;;;;;;;3.38;2.20;;;7.70;74.80;;;;;;5021909;28;20061;-75
2021/12/06 03:51:51;;;;;;;2.40;1.77;;;7.70;75.50;;;;;;5003777;28;20072;-75
2021/12/06 03:54:24;;;;;;;2.97;2.08;;;7.60;76.10;;;;;;4997316;28;20037;-75
2021/12/06 03:56:50;;;;;;;3.83;2.63;;;7.60;76.40;;;;;;5027528;28;20038;-75
2021/12/06 03:59:16;;;;;;;2.25;2.05;;;7.50;76.30;;;;;;5022895;28;20103;-75
2021/12/06 04:01:42;;;;;;;3.03;1.85;;;7.60;76.60;;;;;;5020642;28;20080;-75
2021/12/06 04:04:10;;;;;;;4.07;2.40;;;7.60;76.80;;;;;;5004067;28;20132;-75
2021/12/06 04:06:37;;;;;;;3.72;2.78;;;7.50;76.90;;;;;;5018595;28;20038;-75
2021/12/06 04:09:06;;;;;;;3.60;2.50;;;7.60;77.20;;;;;;5033130;28;20398;-75
2021/12/06 04:11:33;;;;;;;5.57;2.75;;;7.60;77.10;;;;;;5033171;28;20507;-76
2021/12/06 04:13:59;;;;;;;3.15;2.35;;;7.60;77.10;;;;;;5032412;28;20029;-75
2021/12/06 04:16:24;;;;;;;3.50;2.95;;;7.70;77.30;;;;;;5014790;28;20037;-75
2021/12/06 04:18:50;;;;;;;3.92;3.20;;;7.70;76.80;;;;;;5033208;28;20040;-75
2021/12/06 04:21:17;;;;;;;2.90;2.33;;;7.60;77.20;;;;;;5032887;28;20038;-75
2021/12/06 04:23:43;;;;;;;5.40;3.90;;;7.50;77.40;;;;;;5029637;28;20385;-75
2021/12/06 04:26:10;;;;;;;3.30;3.00;;;7.40;77.80;;;;;;5032998;28;20413;-75
2021/12/06 04:28:37;;;;;;;3.90;3.50;;;7.30;78.10;;;;;;5015300;28;20564;-75
2021/12/06 04:31:04;;;;;;;4.85;3.65;;;7.30;78.70;;;;;;5032501;28;20040;-75
2021/12/06 04:33:31;;;;;;;3.45;3.08;;;7.30;78.60;;;;;;5033551;28;20048;-75
2021/12/06 04:35:56;;;;;;;3.90;3.05;;;7.30;78.60;;;;;;5032769;28;20458;-74
2021/12/06 04:38:22;;;;;;;3.47;2.65;;;7.30;79.20;;;;;;5033630;28;20034;-75
2021/12/06 04:40:49;;;;;;;4.15;3.30;;;7.30;78.70;;;;;;5032532;28;20042;-74
2021/12/06 04:43:14;;;;;;;4.13;3.72;;;7.30;79.00;;;;;;5032256;28;20068;-75
2021/12/06 04:45:40;;;;;;;6.13;4.32;;;7.20;79.40;;;;;;5032100;28;20084;-74
2021/12/06 04:48:07;;;;;;;3.78;3.38;;;7.10;79.40;;;;;;5032087;28;20140;-74
2021/12/06 04:50:34;;;;;;;3.50;2.78;;;7.10;79.90;;;;;;5031385;28;20117;-75
2021/12/06 04:53:06;;;;;;;3.45;2.95;;;7.10;79.90;;;;;;5032327;28;20116;-75
2021/12/06 04:55:41;;;;;;;6.53;4.28;;;7.10;79.70;;;;;;5014295;28;20045;-75
2021/12/06 04:58:09;;;;;;;4.00;3.08;;;7.00;80.00;;;;;;5032444;28;20099;-74
2021/12/06 05:00:40;;;;;;;5.03;3.88;;;7.00;80.40;;;;;;5034840;28;20544;-76
2021/12/06 05:03:08;;;;;;;5.47;4.13;;;6.80;80.10;;;;;;5031767;28;20382;-75
2021/12/06 05:05:42;;;;;;;3.65;2.90;;;6.80;80.50;;;;;;5032666;28;20516;-76
2021/12/06 05:08:21;;;;;;;3.25;2.47;;;6.70;80.60;;;;;;5032257;28;20061;-76
2021/12/06 05:10:47;;;;;;;3.58;2.60;;;6.80;80.50;;;;;;5030038;28;20045;-76
2021/12/06 05:13:13;;;;;;;4.03;3.25;;;7.00;80.30;;;;;;5031886;28;20075;-76
2021/12/06 05:15:39;;;;;;;3.03;2.72;;;7.10;79.40;;;;;;5032374;28;20033;-76
2021/12/06 05:18:05;;;;;;;3.60;2.85;;;7.30;79.40;;;;;;5014341;28;20548;-76
2021/12/06 05:20:32;;;;;;;4.22;2.38;;;7.30;77.70;;;;;;5031901;28;20037;-76
2021/12/06 05:22:58;;;;;;;3.28;2.63;;;7.20;76.90;;;;;;5032236;28;20045;-75
2021/12/06 05:25:25;;;;;;;3.35;2.47;;;7.00;76.30;;;;;;5034367;28;20048;-76
2021/12/06 05:27:52;;;;;;;3.80;2.13;;;7.00;77.20;;;;;;5027442;28;20151;-75
2021/12/06 05:30:21;;;;;;;3.97;2.45;;;7.10;77.70;;;;;;5036021;28;20135;-75
2021/12/06 05:32:48;;;;;;;3.93;2.23;;;7.10;77.60;;;;;;5032170;28;20049;-75
2021/12/06 05:35:14;;;;;;;4.00;2.55;;;7.20;77.20;;;;;;5031916;28;20037;-76
2021/12/06 05:37:53;;;;;;;4.80;3.10;;;7.10;76.80;;;;;;5032644;28;20033;-76
2021/12/06 05:40:24;;;;;;;5.50;2.88;;;6.90;76.60;;;;;;5015364;28;20396;-75
2021/12/06 05:42:50;;;;;;;3.50;2.40;;;6.80;77.80;;;;;;5031636;28;20041;-75
2021/12/06 05:45:19;;;;;;;4.00;2.65;;;6.80;78.30;;;;;;5035507;28;20084;-75
2021/12/06 05:47:45;;;;;;;3.83;2.45;;;6.80;78.40;;;;;;5037905;28;20033;-76
2021/12/06 05:50:12;;;;;;;3.45;2.28;;;6.90;78.30;;;;;;5035269;28;20496;-76
2021/12/06 05:52:38;;;;;;;3.25;2.70;;;7.00;78.20;;;;;;5034120;28;20047;-75
2021/12/06 05:55:06;;;;;;;3.47;2.38;;;7.00;77.90;;;;;;5035985;28;20112;-76
2021/12/06 05:57:32;;;;;;;4.93;2.47;;;7.00;77.20;;;;;;5017107;28;20549;-76
2021/12/06 05:59:58;;;;;;;3.08;2.03;;;7.00;77.70;;;;;;5035243;28;20121;-76
2021/12/06 06:02:24;;;;;;;2.60;2.17;;;7.10;77.80;;;;;;5035506;28;20112;-76
2021/12/06 06:04:49;;;;;;;2.92;2.13;;;7.10;76.90;;;;;;5027375;28;20048;-75
2021/12/06 06:07:15;;;;;;;3.67;3.03;;;7.20;76.80;;;;;;5032786;28;20512;-75
2021/12/06 06:09:41;;;;;;;4.22;2.88;;;7.00;76.20;;;;;;5034958;28;20421;-75
2021/12/06 06:12:08;;;;;;;2.72;1.92;;;6.90;77.00;;;;;;5016479;28;20040;-75
2021/12/06 06:14:34;;;;;;;3.30;2.47;;;7.10;77.20;;;;;;5034671;28;20059;-77
2021/12/06 06:17:09;;;;;;;4.55;2.75;;;7.20;77.30;;;;;;5020127;28;20342;-77
2021/12/06 06:19:36;;;;;;;3.70;2.38;;;7.20;76.30;;;;;;5035069;28;20076;-78
2021/12/06 06:22:03;;;;;;;2.78;2.00;;;7.10;76.40;;;;;;5033877;28;20088;-78
2021/12/06 06:24:28;;;;;;;3.67;2.50;;;7.00;76.40;;;;;;5033361;28;20061;-78
2021/12/06 06:26:54;;;;;;;4.40;3.28;;;7.00;76.90;;;;;;5034352;28;20482;-78
2021/12/06 06:29:20;;;;;;;6.32;3.83;;;6.90;76.70;;;;;;5017177;28;21732;-78
2021/12/06 06:31:45;;;;;;;2.33;2.13;;;6.70;77.10;;;;;;5016980;28;20466;-78
2021/12/06 06:34:12;;;;;;;4.90;3.15;;;6.80;77.50;;;;;;5034753;28;20092;-83
2021/12/06 06:36:37;;;;;;;3.88;2.83;;;6.90;77.20;;;;;;5035826;28;20034;-83
2021/12/06 06:39:06;;;;;;;4.90;2.97;;;6.90;77.00;;;;;;5017186;28;20035;-84
2021/12/06 06:41:31;;;;;;;5.97;3.42;;;6.80;76.60;;;;;;5032851;28;20029;-84
2021/12/06 06:43:58;;;;;;;4.00;2.58;;;6.70;76.60;;;;;;5034135;28;20120;-84
2021/12/06 06:46:24;;;;;;;3.95;3.08;;;6.80;77.10;;;;;;5035448;28;20065;-84
2021/12/06 06:48:49;;;;;;;5.68;2.45;;;6.70;77.00;;;;;;5036180;28;20493;-83
2021/12/06 06:51:15;;;;;;;4.28;3.28;;;6.80;76.90;;;;;;5036502;28;20048;-86
2021/12/06 06:53:41;;;;;;;4.82;2.92;;;6.80;76.40;;;;;;5018552;28;20038;-87
2021/12/06 06:56:07;;;;;;;5.82;3.92;;;6.70;76.70;;;;;;5036779;28;20040;-88
2021/12/06 06:58:33;;;;;;;4.55;3.50;;;6.70;76.60;;;;;;5017558;28;20041;-86
2021/12/06 07:00:59;;;;;;;5.05;3.97;;;6.50;77.10;;;;;;5034851;28;20061;-87
2021/12/06 07:03:24;;;;;;;7.75;3.92;;;6.40;77.90;;;;;;5036699;28;20025;-83
2021/12/06 07:05:50;;;;;;;5.25;3.90;;;6.20;78.20;;;;;;5027798;28;20124;-82
2021/12/06 07:08:16;;;;;;;4.57;3.10;;;6.20;78.30;;;;;;5031669;28;20091;-82
2021/12/06 07:10:42;;;;;;;3.15;2.75;;;6.20;78.20;;;;;;5030630;28;20160;-83
2021/12/06 07:13:11;;;;;;;4.93;3.20;;;6.40;77.80;;;;;;5033813;28;20474;-82
2021/12/06 07:16:03;;;;;;;3.30;2.33;;;6.50;77.40;;;;;;5035273;28;20469;-83
2021/12/06 07:18:28;;;;;;;3.13;2.35;;;6.70;76.90;;;;;;5028889;28;20097;-81
2021/12/06 07:20:54;;;;;;;3.42;2.40;;;6.90;76.50;;;;;;5034291;28;20038;-81
2021/12/06 07:23:20;;;;;;;3.08;2.15;;;7.00;76.30;;;;;;5016845;28;20531;-81
2021/12/06 07:25:45;;;;;;;2.50;1.85;;;7.20;75.70;;;;;;5016562;28;20516;-81
2021/12/06 07:28:11;;;;;;;2.10;1.58;;;7.20;74.80;;;;;;5033197;28;20397;-81
2021/12/06 07:30:37;;;;;;;2.33;1.83;;;7.30;74.50;;;;;;5034798;28;20498;-81
2021/12/06 07:33:03;;;;;;;3.72;1.90;;;7.30;73.90;;;;;;5034380;28;20041;-81
2021/12/06 07:35:29;;;;;;;3.17;1.98;;;7.30;74.60;;;;;;5034303;28;20041;-81
2021/12/06 07:37:56;;;;;;;2.83;1.90;;;7.30;72.70;;;;;;5018040;28;20140;-82
2021/12/06 07:40:22;;;;;;;2.75;1.67;;;7.20;72.30;;;;;;5035362;28;20044;-81
2021/12/06 07:42:48;;;;;;;4.53;1.92;;;7.30;72.90;;;;;;5035953;28;20033;-81
2021/12/06 07:45:15;;;;;;;2.55;1.80;;;7.30;71.60;;;;;;5034624;28;20552;-81
2021/12/06 07:47:42;;;;;;;3.63;2.22;;;7.10;71.70;;;;;;5035228;28;20045;-80
2021/12/06 07:50:17;;;;;;;3.90;2.65;;;7.10;72.50;;;;;;5034002;28;20041;-80
2021/12/06 07:52:44;;;;;;;3.78;2.55;;;6.80;72.20;;;;;;5024652;28;20125;-80
2021/12/06 07:55:13;;;;;;;3.38;2.42;;;6.70;72.90;;;;;;5025158;28;20037;-80
2021/12/06 07:57:39;;;;;;;3.70;2.08;;;6.70;72.80;;;;;;5030114;28;20045;-79
2021/12/06 08:00:14;;;;;;;4.10;2.60;;;6.80;73.10;;;;;;5014376;28;20115;-79
2021/12/06 08:02:40;;;;;;;3.50;2.50;;;6.70;72.90;;;;;;5033748;28;20037;-80
2021/12/06 08:07:52;;;;;;;3.13;2.03;;;6.60;72.70;;;;;;5033782;28;20057;-83
2021/12/06 08:10:18;;;;;;;2.67;1.88;;;6.60;72.70;;;;;;5035533;28;20034;-84
2021/12/06 08:12:43;;;;;;;2.30;1.83;;;6.80;72.20;;;;;;5034769;28;20421;-84
2021/12/06 08:15:10;;;;;;;3.80;1.45;;;6.80;72.00;;;;;;5034325;28;20061;-84
2021/12/06 08:17:36;;;;;;;4.20;1.63;;;6.90;71.90;;;;;;5033870;28;20116;-84
2021/12/06 08:20:05;;;;;;;4.15;1.85;;;7.20;72.30;;;;;;5030697;28;20485;-79
2021/12/06 08:22:31;;;;;;;3.20;1.92;;;7.40;71.80;;;;;;5015169;28;20492;-77
2021/12/06 08:27:35;;;;;;;2.92;2.00;;;7.80;71.90;;;;;;3524224;22;20156;-86
2021/12/06 08:30:03;;;;;;;3.15;2.45;;;7.80;69.30;;;;;;5018900;28;20074;-88
2021/12/06 08:32:28;;;;;;;2.47;1.88;;;7.60;69.10;;;;;;5036848;28;20124;-89
2021/12/06 08:34:54;;;;;;;1.73;1.50;;;7.80;69.20;;;;;;5040155;28;20484;-88
2021/12/06 08:37:21;;;;;;;4.13;2.17;;;8.00;69.80;;;;;;5019260;28;20565;-87
2021/12/06 08:39:47;;;;;;;3.92;2.42;;;8.10;69.10;;;;;;5036521;28;20037;-87
2021/12/06 08:42:13;;;;;;;2.67;1.98;;;7.90;67.40;;;;;;5034448;28;20465;-88
2021/12/06 08:44:38;;;;;;;3.42;2.40;;;7.90;68.00;;;;;;5035215;28;20099;-88
2021/12/06 08:47:04;;;;;;;5.38;2.95;;;7.80;67.60;;;;;;5034812;28;20133;-88
2021/12/06 08:49:30;;;;;;;2.90;1.98;;;7.80;68.00;;;;;;5034499;28;20504;-86
2021/12/06 08:51:57;;;;;;;4.47;2.50;;;7.90;68.40;;;;;;5035783;28;20033;-87
2021/12/06 08:54:27;;;;;;;5.50;2.78;;;7.80;67.60;;;;;;5036867;28;20029;-86
2021/12/06 08:56:56;;;;;;;3.50;2.60;;;7.80;68.30;;;;;;5042530;28;20373;-88
2021/12/06 08:59:23;;;;;;;3.47;2.20;;;7.80;68.50;;;;;;5048097;28;20496;-88
2021/12/06 09:01:49;;;;;;;4.50;2.15;;;7.80;68.30;;;;;;5037726;28;20264;-88
2021/12/06 09:04:16;;;;;;;3.33;2.47;;;7.90;68.40;;;;;;5036315;28;20033;-88
2021/12/06 09:06:45;;;;;;;5.82;2.72;;;8.00;67.50;;;;;;5012664;28;20088;-87
2021/12/06 09:09:12;;;;;;;3.85;1.95;;;8.00;68.10;;;;;;5040938;28;20029;-88
2021/12/06 09:11:41;;;;;;;3.20;1.75;;;8.20;68.10;;;;;;5039571;28;20005;-88
2021/12/06 09:14:08;;;;;;;5.65;2.35;;;8.30;67.60;;;;;;5039483;28;20052;-87
2021/12/06 09:16:36;;;;;;;2.72;1.65;;;8.20;66.30;;;;;;5035388;28;20501;-86
2021/12/06 09:19:05;;;;;;;6.10;2.25;;;8.40;67.70;;;;;;5040693;28;20041;-87
2021/12/06 09:21:32;;;;;;;3.17;1.48;;;8.50;66.30;;;;;;5039841;28;20527;-87
2021/12/06 09:24:00;;;;;;;2.67;2.15;;;8.70;67.60;;;;;;5041579;28;20064;-89
2021/12/06 09:26:28;;;;;;;3.70;1.75;;;8.90;66.10;;;;;;5021056;28;20068;-88
2021/12/06 09:28:55;;;;;;;1.95;1.50;;;8.80;64.90;;;;;;5028898;28;20042;-88
2021/12/06 09:31:21;;;;;;;3.97;2.28;;;9.10;66.10;;;;;;4993117;28;20038;-87
2021/12/06 09:33:47;;;;;;;3.47;1.63;;;9.00;64.30;;;;;;4998511;28;20041;-87
2021/12/06 09:36:14;;;;;;;2.45;1.55;;;9.10;65.30;;;;;;5019448;28;20025;-88
2021/12/06 09:38:42;;;;;;;3.95;2.20;;;9.30;64.40;;;;;;5022876;28;20042;-88
2021/12/06 09:41:13;;;;;;;2.63;1.70;;;9.00;61.70;;;;;;5018187;28;20389;-88
2021/12/06 09:43:41;;;;;;;2.85;2.00;;;9.10;63.60;;;;;;5023130;28;20077;-88
2021/12/06 09:46:09;;;;;;;2.33;1.60;;;9.10;62.40;;;;;;5022962;28;20046;-87
2021/12/06 09:48:36;;;;;;;2.33;1.75;;;8.90;60.90;;;;;;5025257;28;20030;-86
2021/12/06 09:51:08;;;;;;;2.70;1.38;;;8.90;60.30;;;;;;5014274;28;20037;-86
2021/12/06 09:53:37;;;;;;;3.83;1.92;;;8.90;61.50;;;;;;4992379;28;20038;-84
2021/12/06 09:56:12;;;;;;;2.30;1.33;;;9.00;60.80;;;;;;5005300;28;20038;-86
2021/12/06 09:58:38;;;;;;;2.28;1.30;;;9.10;60.00;;;;;;5000268;28;20402;-87
2021/12/06 10:01:13;;;;;;;2.95;1.20;;;9.10;60.40;;;;;;5015877;28;20041;-87
2021/12/06 10:03:40;;;;;;;1.95;1.23;;;9.10;58.70;;;;;;5014884;28;20030;-86
2021/12/06 10:06:08;;;;;;;2.60;1.45;;;9.20;59.10;;;;;;5015630;28;20068;-86
2021/12/06 10:08:38;;;;;;;0.80;0.73;;;9.20;58.40;;;;;;5019259;28;20080;-87
2021/12/06 10:11:08;;;;;;;5.63;1.27;;;9.40;60.00;;;;;;4980497;28;20038;-86
2021/12/06 10:13:34;;;;;;;;;;;9.70;58.20;;;;;;5015117;28;20409;-86
2021/12/06 10:16:00;;;;;;;1.70;1.23;;;9.80;57.00;;;;;;5013723;28;19992;-86
2021/12/06 10:18:26;;;;;;;1.92;1.13;;;9.70;58.10;;;;;;5007995;28;20070;-86
2021/12/06 10:20:53;;;;;;;2.08;1.10;;;10.00;57.90;;;;;;5012718;28;20507;-86
2021/12/06 10:23:19;;;;;;;3.25;1.25;;;10.30;59.40;;;;;;5013377;28;20065;-87
2021/12/06 10:25:51;;;;;;;2.72;1.63;;;10.20;55.10;;;;;;5012439;28;20075;-87
2021/12/06 10:28:19;;;;;;;3.50;1.55;;;10.40;55.60;;;;;;5018645;28;20053;-87
2021/12/06 10:30:49;;;;;;;1.02;0.93;;;10.40;53.90;;;;;;5023283;28;20496;-87
2021/12/06 10:33:20;;;;;;;3.22;1.17;;;10.60;56.20;;;;;;5028372;28;20124;-85
2021/12/06 10:35:59;;;;;;;1.20;0.70;;;10.60;52.50;;;;;;5036618;28;20397;-87
2021/12/06 10:38:33;;;;;;;3.58;1.20;;;10.80;55.10;;;;;;5023053;28;20042;-86
2021/12/06 10:41:03;;;;;;;1.40;1.05;;;10.80;51.60;;;;;;5017246;28;20092;-86
2021/12/06 10:43:30;;;;;;;2.08;0.95;;;11.10;54.20;;;;;;5017769;28;20038;-86
2021/12/06 10:45:57;;;;;;;1.58;1.10;;;10.90;49.00;;;;;;5017259;28;20124;-86
2021/12/06 10:48:29;;;;;;;0.60;0.60;;;10.80;49.80;;;;;;5018383;28;20049;-84
2021/12/06 10:50:58;;;;;;;1.02;0.80;;;10.90;50.40;;;;;;5019229;28;20601;-85
2021/12/06 10:53:39;;;;;;;1.70;0.80;;;11.10;51.20;;;;;;5019602;28;20042;-85
2021/12/06 10:56:16;;;;;;;0.80;0.70;;;11.40;50.80;;;;;;5017607;28;20065;-85
2021/12/06 10:58:42;;;;;;;1.70;0.80;;;11.50;47.40;;;;;;5014113;28;20077;-86
2021/12/06 11:01:33;;;;;;;2.10;1.10;;;11.80;49.10;;;;;;5017100;28;20116;-85
2021/12/06 11:04:01;;;;;;;2.75;1.02;;;11.60;45.70;;;;;;5020632;28;20121;-86
2021/12/06 11:06:45;;;;;;;1.08;0.90;;;11.60;48.30;;;;;;5033465;28;20042;-86
2021/12/06 11:09:16;;;;;;;2.60;1.10;;;11.90;47.70;;;;;;5016733;28;20046;-86
2021/12/06 11:11:45;;;;;;;1.70;1.13;;;11.90;48.30;;;;;;5015018;28;20045;-87
2021/12/06 11:14:19;;;;;;;2.42;1.50;;;11.70;47.50;;;;;;5025477;28;20112;-85
2021/12/06 11:16:48;;;;;;;1.65;1.45;;;11.70;48.00;;;;;;5010772;28;20034;-85
2021/12/06 11:19:18;;;;;;;3.95;1.60;;;11.70;47.80;;;;;;5019482;28;20040;-86
2021/12/06 11:21:49;;;;;;;2.00;1.40;;;11.70;50.90;;;;;;5018306;28;20116;-86
2021/12/06 11:24:21;;;;;;;3.20;1.60;;;12.10;51.10;;;;;;5018396;28;20057;-86
2021/12/06 11:26:52;;;;;;;2.75;1.27;;;12.40;50.10;;;;;;5015330;28;20054;-86
2021/12/06 11:29:26;;;;;;;2.33;1.02;;;12.60;46.20;;;;;;5015227;28;20048;-85
2021/12/06 11:31:54;;;;;;;1.55;1.20;;;12.90;50.30;;;;;;5000163;28;20038;-86
2021/12/06 11:34:20;;;;;;;2.45;1.40;;;13.70;51.20;;;;;;5016482;28;20048;-85
2021/12/06 11:36:46;;;;;;;3.17;1.33;;;14.30;45.00;;;;;;5016763;28;20034;-86
2021/12/06 11:39:16;;;;;;;2.40;1.65;;;15.20;48.50;;;;;;4999526;28;20038;-86
2021/12/06 11:41:45;;;;;;;1.10;0.90;;;16.00;40.80;;;;;;5017568;28;20042;-85
2021/12/06 11:44:32;;;;;;;1.83;1.10;;;16.10;41.60;;;;;;5015973;28;20049;-86
2021/12/06 11:47:18;;;;;;;0.88;0.65;;;16.60;36.90;;;;;;5018297;28;20046;-89
2021/12/06 11:49:47;;;;;;;1.33;1.00;;;17.40;37.80;;;;;;5011632;28;20052;-86
2021/12/06 11:52:17;;;;;;;1.30;1.17;;;18.60;33.70;;;;;;5006166;28;20036;-86
2021/12/06 11:54:48;;;;;;;2.55;1.20;;;17.90;32.80;;;;;;5009603;28;20034;-87
2021/12/06 11:57:18;;;;;;;1.00;0.70;;;17.40;33.30;;;;;;5004747;28;20057;-87
2021/12/06 11:59:54;;;;;;;2.60;1.75;;;17.60;34.60;;;;;;5012281;28;20026;-86
2021/12/06 12:02:33;;;;;;;7.22;2.08;;;18.10;34.50;;;;;;5015214;28;20101;-88
2021/12/06 12:05:36;;;;;;;5.20;2.20;;;18.50;32.40;;;;;;5016400;28;20089;-87
2021/12/06 12:08:10;;;;;;;2.35;1.77;;;17.80;33.60;;;;;;5018870;28;20050;-87
2021/12/06 12:10:44;;;;;;;1.95;1.63;;;18.30;36.00;;;;;;5015728;28;20034;-86
2021/12/06 12:13:25;;;;;;;2.40;1.80;;;19.00;33.50;;;;;;5018813;28;20034;-87
2021/12/06 12:15:54;;;;;;;1.90;1.70;;;19.00;32.30;;;;;;5037228;28;20033;-87
2021/12/06 12:18:20;;;;;;;2.30;1.55;;;18.80;32.60;;;;;;5032541;28;20094;-86
2021/12/06 12:20:47;;;;;;;1.80;1.60;;;18.50;32.20;;;;;;5027344;28;20073;-86
2021/12/06 12:23:13;;;;;;;3.53;2.15;;;18.90;32.70;;;;;;5034959;28;20097;-86
2021/12/06 12:25:49;;;;;;;1.38;1.27;;;17.90;32.40;;;;;;5035543;28;20022;-85
2021/12/06 12:30:50;;;;;;;3.95;1.77;;;18.10;34.00;;;;;;5038504;28;20470;-85
2021/12/06 12:33:19;;;;;;;2.65;1.42;;;17.70;32.20;;;;;;5038070;28;20085;-85
2021/12/06 12:35:50;;;;;;;1.60;1.23;;;18.30;33.80;;;;;;5037909;28;20064;-85
2021/12/06 12:38:19;;;;;;;;;;;18.50;32.50;;;;;;5036489;28;20052;-85
2021/12/06 12:40:50;;;;;;;1.33;1.00;;;18.30;32.20;;;;;;5037279;28;20269;-85
2021/12/06 12:43:23;;;;;;;1.80;1.20;;;18.30;32.00;;;;;;5036020;28;20045;-86
2021/12/06 12:45:52;;;;;;;1.83;1.05;;;18.70;33.90;;;;;;5020083;28;20385;-86
2021/12/06 12:48:23;;;;;;;1.47;1.20;;;18.80;32.90;;;;;;5018322;28;20401;-89
2021/12/06 12:51:01;;;;;;;;;;;18.40;31.80;;;;;;5017294;28;20430;-86
2021/12/06 12:53:27;;;;;;;1.67;1.10;;;18.30;31.00;;;;;;5034824;28;19936;-86
2021/12/06 12:55:52;;;;;;;1.30;0.90;;;18.60;30.60;;;;;;5034967;28;20560;-87
2021/12/06 12:58:20;;;;;;;1.65;0.90;;;19.00;32.00;;;;;;5034915;28;20041;-87
2021/12/06 13:01:07;;;;;;;1.23;0.77;;;19.40;30.70;;;;;;5027981;28;20097;-87
2021/12/06 13:03:40;;;;;;;1.88;1.10;;;19.80;29.90;;;;;;5035728;28;20043;-87
2021/12/06 13:06:27;;;;;;;1.77;1.00;;;18.90;29.80;;;;;;5018049;28;20040;-87
2021/12/06 13:08:56;;;;;;;1.75;1.00;;;19.20;30.10;;;;;;5034550;28;20037;-87
2021/12/06 13:11:25;;;;;;;1.77;1.10;;;19.30;31.20;;;;;;5034992;28;20032;-86
2021/12/06 13:13:51;;;;;;;3.85;1.33;;;18.70;30.40;;;;;;5018706;28;20041;-87
2021/12/06 13:16:58;;;;;;;2.08;1.52;;;18.80;31.80;;;;;;5023376;28;20045;-87
2021/12/06 13:22:19;;;;;;;2.78;1.52;;;17.60;33.70;;;;;;5036348;28;20048;-87
2021/12/06 13:24:48;;;;;;;1.65;1.27;;;17.40;33.80;;;;;;5017595;28;20124;-87